Portalegre, Brazil
Current Conditions -  °F | °C
As of 3:00 PM on Wednesday 26 Nov 2014 (Local Time) from SBMS Reporting Station
Few Clouds Few Clouds  
Wind Chill: 91°   Ceiling: Unl
Heat Index: 95°   Visibility: 6mi
Dew Point: 68°   Wind: 18mph
Humidity: 46%   Direction: 20°NNE
Pressure: 29.8"   Gusts: NA
Location:  6.02°S, 37.99°W
Report Text: SBMS 261800Z 02016KT 9999 FEW030 33/20 Q1009
Loading
Personal Weather Stations






























Interactive Weather Map New forecast layout! Learn more

10-Day Weather Forecast

Advertisements
Track Severe Weather on mobile